Saturday, October 25, 2014
20:44 UTC
  |  Log In   |  Register Free
Airport Search:

Bishop International Airport
(KFNT)

FAA data valid effective September 18, 2014 - November 13, 2014 (unless otherwise noted).

 
 
 
 
 
 
 
 
 
 
 
 
 
 

Current Aviation Weather for Bishop International Airport (KFNT)

The most recent METAR observation for KFNT was updated at: 2009
METAR Summary (Translated METAR)
KFNT
251953Z 28015G27KT 10SM CLR 21/06 A2971 RMK AO2 PK WND 28029/1930 SLP061 T02060056
KRNP
251954Z AUTO 26020G26KT 10SM CLR 19/01 A2973 RMK AO2 T01940010
(17.4 nm NW from KFNT)
KD95
251954Z AUTO 29014G22KT 10SM SCT055 19/03 A2970 RMK AO2 T01860031
(21.6 nm NE from KFNT)
TAF Summary (Translated TAF)
KFNT
251738Z 2518/2618 29015G25KT P6SM FEW040 FM260000 29012KT P6SM SKC FM260300 27006KT P6SM SKC
  Airport Weather Conditions for KFNT

 Current Weather at FNT
68° F
Fair
West winds at 17.3 mph
FNT NOAA Radar

Pressure: 29.73 in
Humidity: 47%
Wind: from the West at 17.3 gusting to 26.5 MPH (15 gusting to 23 KT)
Dew Point: 46.9°F
Visibility: 10.00 mi


Airport Weather Forecast for KFNT

Translated METAR and TAF for KFNT
Translated METAR for KFNT (2039 UTC 25 October 2014)
found at http://aviationweather.gov/adds/metars/
 
METAR text: KFNT 251953Z 28015G27KT 10SM CLR 21/06 A2971 RMK AO2 PK WND 28029/1930 SLP061 T02060056
Conditions at: KFNT (FLINT , MI, US) observed 1953 UTC 25 October 2014
Temperature: 20.6°C (69°F)
Dewpoint: 5.6°C (42°F) [RH = 37%]
Pressure (altimeter): 29.71 inches Hg (1006.2 mb)
[Sea-level pressure: 1006.1 mb]
Winds: from the W (280 degrees) at 17 MPH (15 knots; 7.8 m/s)
gusting to 31 MPH (27 knots; 14.0 m/s)
Visibility: 10 or more miles (16+ km)
Ceiling: at least 12,000 feet AGL
Clouds: sky clear below 12,000 feet AGL
Weather: no significant weather observed at this time
Translated TAF for KFNT
Forecast for: KFNT (FLINT , MI, US)
TAF Text: KFNT 251738Z 2518/2618 29015G25KT P6SM FEW040
Forecast period: 1800 UTC 25 October 2014 to 0000 UTC 26 October 2014
Forecast type: FROM: standard forecast or significant change
Winds: from the WNW (290 degrees) at 17 MPH (15 knots; 7.8 m/s)
gusting to 29 MPH (25 knots; 13.0 m/s)
Visibility: 6 or more miles (10+ km)
Clouds: few clouds at 4000 feet AGL
Weather: no significant weather forecast for this period
TAF Text: FM260000 29012KT P6SM SKC
Forecast period: 0000 to 0300 UTC 26 October 2014
Forecast type: FROM: standard forecast or significant change
Winds: from the WNW (290 degrees) at 14 MPH (12 knots; 6.2 m/s)
Visibility: 6 or more miles (10+ km)
Clouds: clear skies
Weather: no significant weather forecast for this period
TAF Text: FM260300 27006KT P6SM SKC
Forecast period: 0300 to 1800 UTC 26 October 2014
Forecast type: FROM: standard forecast or significant change
Winds: from the W (270 degrees) at 7 MPH (6 knots; 3.1 m/s)
Visibility: 6 or more miles (10+ km)
Clouds: clear skies
Weather: no significant weather forecast for this period

Find All Airport Services Find A Hotel Find A Rental Car Find A Golf Course Find A Restaurant $100 Hamburger



FBO's on the Field
FBO Company Facility Photos Services Transportation Aviation Fuel Prices: Prices include tax
Catering Weather Repair Courtesy Rental Type 100LL JetA JetA+ MOGAS 8087
 
Avflight Flint

This FBO has not yet been rated
FS:Avfuel
Last Updated: Oct-13
Login to update fuel prices
SS:
Contact Avflight FlintMore FBO Information
 
Add another FBO Facility Photos Catering Weather Repair Courtesy Rental Type 100LL JetA JetA+ MOGAS 8087
Services Transportation Aviation Fuel Prices: Prices include tax


model-print
model-print
model-print
model-print